Time;durP1;ratioP1;P1;durP2;ratioP2;P2;SDS_P1;SDS_P2;PMS_P1;PMS_P2;Temp;Humidity;BMP_temperature;BMP_pressure;BME280_temperature;BME280_humidity;BME280_pressure;Samples;Min_cycle;Max_cycle;Signal;HPM_P1;HPM_P2
2021/12/21 00:01:42;;;;;;;41.95;28.02;;;;;;;;;;5015095;28;20190;-85
2021/12/21 00:04:10;;;;;;;108.43;41.90;;;;;;;;;;5015045;28;20213;-83
2021/12/21 00:06:38;;;;;;;33.17;28.60;;;;;;;;;;5015072;28;20205;-85
2021/12/21 00:09:05;;;;;;;62.13;29.98;;;;;;;;;;5015000;28;20590;-85
2021/12/21 00:11:33;;;;;;;44.92;31.13;;;;;;;;;;5014675;28;20194;-85
2021/12/21 00:14:15;;;;;;;53.90;30.73;;;;;;;;;;5014888;28;20280;-84
2021/12/21 00:19:43;;;;;;;39.97;29.30;;;;;;;;;;5014777;28;20201;-85
2021/12/21 00:22:25;;;;;;;56.42;27.67;;;;;;;;;;5014563;28;20221;-85
2021/12/21 00:24:53;;;;;;;59.38;29.40;;;;;;;;;;5014684;28;20209;-84
2021/12/21 00:27:21;;;;;;;66.45;29.70;;;;;;;;;;5014936;28;20189;-86
2021/12/21 00:29:49;;;;;;;76.03;31.35;;;;;;;;;;5013467;28;20296;-86
2021/12/21 00:32:17;;;;;;;60.20;32.05;;;;;;;;;;5014762;28;20189;-85
2021/12/21 00:34:45;;;;;;;115.47;34.58;;;;;;;;;;5014179;28;20194;-86
2021/12/21 00:37:13;;;;;;;74.10;32.53;;;;;;;;;;5014456;28;20213;-85
2021/12/21 00:39:40;;;;;;;61.90;32.33;;;;;;;;;;5014808;28;20208;-86
2021/12/21 00:42:08;;;;;;;74.80;34.75;;;;;;;;;;5014616;28;20205;-85
2021/12/21 00:44:35;;;;;;;122.53;34.22;;;;;;;;;;5014402;28;20521;-85
2021/12/21 00:47:02;;;;;;;104.15;32.63;;;;;;;;;;5014413;28;20185;-86
2021/12/21 00:49:31;;;;;;;45.42;28.73;;;;;;;;;;5013876;28;20230;-86
2021/12/21 00:51:58;;;;;;;85.65;30.48;;;;;;;;;;5014149;28;20209;-85
2021/12/21 00:54:26;;;;;;;82.95;32.15;;;;;;;;;;5014587;28;20194;-85
2021/12/21 00:56:54;;;;;;;92.28;33.13;;;;;;;;;;5014295;28;20308;-85
2021/12/21 00:59:21;;;;;;;48.60;31.92;;;;;;;;;;5013160;28;20206;-84
2021/12/21 01:01:49;;;;;;;62.53;29.70;;;;;;;;;;5013990;28;20189;-86
2021/12/21 01:04:22;;;;;;;38.92;28.50;;;;;;;;;;5014093;28;20280;-84
2021/12/21 01:07:02;;;;;;;66.57;29.95;;;;;;;;;;5012712;28;20201;-86
2021/12/21 01:12:19;;;;;;;78.80;30.23;;;;;;;;;;4993481;28;20613;-85
2021/12/21 01:15:04;;;;;;;46.65;29.48;;;;;;;;;;5013845;28;20206;-86
2021/12/21 01:17:36;;;;;;;42.13;28.83;;;;;;;;;;5013544;28;20200;-85
2021/12/21 01:20:11;;;;;;;54.55;29.23;;;;;;;;;;5013548;28;20670;-85
2021/12/21 01:23:01;;;;;;;71.45;31.45;;;;;;;;;;5013710;28;20585;-85
2021/12/21 01:25:39;;;;;;;53.67;31.45;;;;;;;;;;5012415;28;20575;-85
2021/12/21 01:28:13;;;;;;;47.92;30.15;;;;;;;;;;5013538;28;20209;-86
2021/12/21 01:30:49;;;;;;;52.78;30.33;;;;;;;;;;5013621;28;20227;-86
2021/12/21 01:33:31;;;;;;;51.20;29.95;;;;;;;;;;5012492;28;20288;-85
2021/12/21 01:36:02;;;;;;;50.78;29.45;;;;;;;;;;5013435;28;20755;-86
2021/12/21 01:38:38;;;;;;;63.38;30.55;;;;;;;;;;5013588;28;20197;-86
2021/12/21 01:41:18;;;;;;;278.83;99.35;;;;;;;;;;5013521;28;20193;-85
2021/12/21 01:43:55;;;;;;;55.47;28.80;;;;;;;;;;5013455;28;20202;-86
2021/12/21 01:51:52;;;;;;;38.25;29.60;;;;;;;;;;5013467;28;20196;-86
2021/12/21 01:54:21;;;;;;;55.13;28.60;;;;;;;;;;5013326;28;20536;-85
2021/12/21 01:56:48;;;;;;;69.40;31.42;;;;;;;;;;5013136;28;20229;-85
2021/12/21 01:59:16;;;;;;;49.08;29.40;;;;;;;;;;5013243;28;20198;-86
2021/12/21 02:01:43;;;;;;;151.70;35.75;;;;;;;;;;5013324;28;20521;-86
2021/12/21 02:04:14;;;;;;;60.70;28.10;;;;;;;;;;5013328;28;20186;-86
2021/12/21 02:06:42;;;;;;;52.75;35.40;;;;;;;;;;4995895;28;20201;-85
2021/12/21 02:09:09;;;;;;;75.43;31.90;;;;;;;;;;5013266;28;20279;-86
2021/12/21 02:11:38;;;;;;;89.72;31.75;;;;;;;;;;5013198;28;20201;-86
2021/12/21 02:14:08;;;;;;;55.88;31.27;;;;;;;;;;5012818;28;20213;-85
2021/12/21 02:16:44;;;;;;;91.03;31.10;;;;;;;;;;5012915;28;20323;-86
2021/12/21 02:19:20;;;;;;;74.30;32.13;;;;;;;;;;5013358;28;20193;-83
2021/12/21 02:21:52;;;;;;;54.22;29.80;;;;;;;;;;5012716;28;20221;-86
2021/12/21 02:24:25;;;;;;;46.30;30.50;;;;;;;;;;5012933;28;20546;-84
2021/12/21 02:27:05;;;;;;;91.05;32.45;;;;;;;;;;5013085;28;20198;-85
2021/12/21 02:29:34;;;;;;;40.75;31.02;;;;;;;;;;5013011;28;20229;-85
2021/12/21 02:32:02;;;;;;;69.97;31.05;;;;;;;;;;4995225;28;20209;-85
2021/12/21 02:34:29;;;;;;;73.88;33.40;;;;;;;;;;5012723;28;20576;-86
2021/12/21 02:36:58;;;;;;;42.53;31.15;;;;;;;;;;5012894;28;20267;-85
2021/12/21 02:39:26;;;;;;;34.78;29.60;;;;;;;;;;5012882;28;20217;-85
2021/12/21 02:41:54;;;;;;;30.77;27.73;;;;;;;;;;5012790;28;20211;-86
2021/12/21 02:44:21;;;;;;;55.97;31.17;;;;;;;;;;5013004;28;20213;-85
2021/12/21 02:46:49;;;;;;;70.22;33.25;;;;;;;;;;5012806;28;20193;-85
2021/12/21 02:49:16;;;;;;;54.42;29.55;;;;;;;;;;5012402;28;20237;-85
2021/12/21 02:51:44;;;;;;;53.15;29.88;;;;;;;;;;5012908;28;20277;-86
2021/12/21 02:54:14;;;;;;;55.78;29.80;;;;;;;;;;5012918;28;20259;-86
2021/12/21 02:56:41;;;;;;;42.70;28.00;;;;;;;;;;5012738;28;20229;-85
2021/12/21 02:59:09;;;;;;;52.13;30.98;;;;;;;;;;5016302;28;20205;-85
2021/12/21 03:01:37;;;;;;;59.80;30.67;;;;;;;;;;5011321;28;20255;-85
2021/12/21 03:04:05;;;;;;;41.65;29.70;;;;;;;;;;5016449;28;20195;-85
2021/12/21 03:09:37;;;;;;;35.17;29.02;;;;;;;;;;5015690;28;20293;-86
2021/12/21 03:12:15;;;;;;;86.78;33.00;;;;;;;;;;5015795;28;20189;-86
2021/12/21 03:14:43;;;;;;;32.70;27.35;;;;;;;;;;5016112;28;20194;-85
2021/12/21 03:17:11;;;;;;;44.25;29.73;;;;;;;;;;5015726;28;20213;-85
2021/12/21 03:19:38;;;;;;;53.08;31.63;;;;;;;;;;5015905;28;20236;-85
2021/12/21 03:22:06;;;;;;;40.65;30.23;;;;;;;;;;5014596;28;20225;-85
2021/12/21 03:24:35;;;;;;;64.93;27.58;;;;;;;;;;5016111;28;20193;-85
2021/12/21 03:27:02;;;;;;;37.13;29.80;;;;;;;;;;5015758;28;20193;-86
2021/12/21 03:29:30;;;;;;;44.83;30.00;;;;;;;;;;5015835;28;20332;-85
2021/12/21 03:31:58;;;;;;;54.50;28.73;;;;;;;;;;5015718;28;20729;-85
2021/12/21 03:34:25;;;;;;;44.22;28.27;;;;;;;;;;5015819;28;20253;-85
2021/12/21 03:36:52;;;;;;;46.33;29.45;;;;;;;;;;5015163;28;20214;-85
2021/12/21 03:39:20;;;;;;;52.85;28.70;;;;;;;;;;5015730;28;20194;-85
2021/12/21 03:41:53;;;;;;;41.50;27.95;;;;;;;;;;5015435;28;20193;-85
2021/12/21 03:44:20;;;;;;;45.92;29.55;;;;;;;;;;5015720;28;20216;-86
2021/12/21 03:46:50;;;;;;;40.67;28.27;;;;;;;;;;5015415;28;20549;-85
2021/12/21 03:49:51;;;;;;;52.35;30.13;;;;;;;;;;5015356;28;20234;-85
2021/12/21 03:52:18;;;;;;;63.10;29.40;;;;;;;;;;5015400;28;20213;-85
2021/12/21 03:54:47;;;;;;;34.10;29.10;;;;;;;;;;5015377;28;20190;-85
2021/12/21 03:57:17;;;;;;;54.65;30.25;;;;;;;;;;5015314;28;20225;-86
2021/12/21 03:59:45;;;;;;;39.92;30.00;;;;;;;;;;5014207;28;20202;-86
2021/12/21 04:02:12;;;;;;;43.47;28.67;;;;;;;;;;5013892;28;20197;-85
2021/12/21 04:04:40;;;;;;;63.72;31.98;;;;;;;;;;5015027;28;20619;-85
2021/12/21 04:07:08;;;;;;;38.83;29.88;;;;;;;;;;5014573;28;20196;-85
2021/12/21 04:09:36;;;;;;;66.32;33.28;;;;;;;;;;5014156;28;20229;-85
2021/12/21 04:12:03;;;;;;;40.58;36.47;;;;;;;;;;5015076;28;20236;-85
2021/12/21 04:14:33;;;;;;;61.80;46.95;;;;;;;;;;5015188;28;20193;-85
2021/12/21 04:17:00;;;;;;;70.55;41.58;;;;;;;;;;5014792;28;20308;-85
2021/12/21 04:19:28;;;;;;;105.38;45.58;;;;;;;;;;5014570;28;20190;-85
2021/12/21 04:21:55;;;;;;;72.45;42.33;;;;;;;;;;5014980;28;20283;-85
2021/12/21 04:24:23;;;;;;;93.75;42.88;;;;;;;;;;5014651;28;20261;-85
2021/12/21 04:26:50;;;;;;;87.20;33.83;;;;;;;;;;5013467;28;20648;-86
2021/12/21 04:29:18;;;;;;;97.85;39.15;;;;;;;;;;5014752;28;20555;-86
2021/12/21 04:31:48;;;;;;;136.40;42.20;;;;;;;;;;5014357;28;20206;-85
2021/12/21 04:34:15;;;;;;;68.88;40.38;;;;;;;;;;5014726;28;20191;-85
2021/12/21 04:36:44;;;;;;;49.83;36.53;;;;;;;;;;5014126;28;20281;-86
2021/12/21 04:39:22;;;;;;;116.03;36.50;;;;;;;;;;5014724;28;20259;-85
2021/12/21 04:41:50;;;;;;;84.78;38.55;;;;;;;;;;5014414;28;20219;-85
2021/12/21 04:44:18;;;;;;;67.20;37.08;;;;;;;;;;5013397;28;20205;-85
2021/12/21 04:46:46;;;;;;;87.68;36.45;;;;;;;;;;5015008;28;20397;-85
2021/12/21 04:49:14;;;;;;;60.80;33.90;;;;;;;;;;5010056;28;20234;-85
2021/12/21 04:51:41;;;;;;;48.17;38.47;;;;;;;;;;5012674;28;20206;-84
2021/12/21 04:54:09;;;;;;;72.43;59.00;;;;;;;;;;5002222;28;20194;-85
2021/12/21 04:56:38;;;;;;;113.63;64.43;;;;;;;;;;4994542;28;20254;-85
2021/12/21 04:59:05;;;;;;;136.75;67.38;;;;;;;;;;4994946;28;20649;-84
2021/12/21 05:01:33;;;;;;;97.00;64.85;;;;;;;;;;4994355;28;20187;-85
2021/12/21 05:04:02;;;;;;;60.60;49.72;;;;;;;;;;5010495;28;20556;-85
2021/12/21 05:06:30;;;;;;;109.82;69.32;;;;;;;;;;4994961;28;20548;-85
2021/12/21 05:09:09;;;;;;;143.32;69.78;;;;;;;;;;4997410;28;20205;-85
2021/12/21 05:11:36;;;;;;;128.93;66.43;;;;;;;;;;5002365;28;20226;-86
2021/12/21 05:14:07;;;;;;;156.43;72.57;;;;;;;;;;4995776;28;20206;-86
2021/12/21 05:16:35;;;;;;;191.73;69.22;;;;;;;;;;4999058;28;20281;-85
2021/12/21 05:19:04;;;;;;;127.10;72.90;;;;;;;;;;4996571;28;20190;-85
2021/12/21 05:21:32;;;;;;;57.17;31.85;;;;;;;;;;4994823;28;20234;-85
2021/12/21 05:23:59;;;;;;;39.95;31.42;;;;;;;;;;4993929;28;20545;-85
2021/12/21 05:26:27;;;;;;;52.72;47.72;;;;;;;;;;5009559;28;20241;-84
2021/12/21 05:28:54;;;;;;;54.53;37.03;;;;;;;;;;4993990;28;20186;-85
2021/12/21 05:31:22;;;;;;;54.05;46.38;;;;;;;;;;4994431;28;20194;-85
2021/12/21 05:33:51;;;;;;;142.60;50.90;;;;;;;;;;4994132;28;20244;-86
2021/12/21 05:36:21;;;;;;;43.78;38.75;;;;;;;;;;4994302;28;20190;-85
2021/12/21 05:38:51;;;;;;;58.10;35.80;;;;;;;;;;5008819;28;20198;-85
2021/12/21 05:41:26;;;;;;;78.25;30.20;;;;;;;;;;4994298;28;20222;-85
2021/12/21 05:43:54;;;;;;;78.45;45.63;;;;;;;;;;4993874;28;20189;-85
2021/12/21 05:46:22;;;;;;;53.15;28.83;;;;;;;;;;4994221;28;20197;-86
2021/12/21 05:48:51;;;;;;;52.85;29.92;;;;;;;;;;5002740;28;20779;-85
2021/12/21 05:51:21;;;;;;;49.20;30.13;;;;;;;;;;5012767;28;20228;-85
2021/12/21 05:53:48;;;;;;;37.47;30.77;;;;;;;;;;5013799;28;20233;-85
2021/12/21 05:56:16;;;;;;;37.15;29.23;;;;;;;;;;5012980;28;20647;-85
2021/12/21 05:58:43;;;;;;;58.67;28.60;;;;;;;;;;5013643;28;20637;-85
2021/12/21 06:01:10;;;;;;;75.75;32.47;;;;;;;;;;5016422;28;20217;-85
2021/12/21 06:03:38;;;;;;;104.65;74.18;;;;;;;;;;5015740;28;20651;-85
2021/12/21 06:06:10;;;;;;;90.00;58.50;;;;;;;;;;5015605;28;20209;-85
2021/12/21 06:08:39;;;;;;;102.82;56.05;;;;;;;;;;5020139;28;20208;-85
2021/12/21 06:11:07;;;;;;;137.07;74.38;;;;;;;;;;5017398;28;20244;-85
2021/12/21 06:27:45;;;;;;;138.60;55.53;;;;;;;;;;5114673;27;20545;-85
2021/12/21 06:30:13;;;;;;;176.85;69.68;;;;;;;;;;5111570;28;20282;-84
2021/12/21 06:32:41;;;;;;;180.85;74.72;;;;;;;;;;5112870;28;20259;-85
2021/12/21 06:35:09;;;;;;;162.98;73.90;;;;;;;;;;5111019;28;20198;-84
2021/12/21 06:37:36;;;;;;;50.25;36.70;;;;;;;;;;5111027;28;20202;-84
2021/12/21 06:40:04;;;;;;;59.17;44.63;;;;;;;;;;5110516;28;20198;-84
2021/12/21 06:42:32;;;;;;;58.20;50.20;;;;;;;;;;5111079;28;20195;-84
2021/12/21 06:45:02;;;;;;;68.50;50.55;;;;;;;;;;5110115;28;20194;-84
2021/12/21 06:52:57;;;;;;;96.20;59.67;;;;;;;;;;5089986;28;20202;-84
2021/12/21 06:55:24;;;;;;;54.05;43.92;;;;;;;;;;5113475;28;20194;-84
2021/12/21 06:57:52;;;;;;;52.67;44.80;;;;;;;;;;5110719;28;20220;-85
2021/12/21 07:00:21;;;;;;;130.35;49.15;;;;;;;;;;5110870;28;20213;-83
2021/12/21 07:02:49;;;;;;;47.05;34.10;;;;;;;;;;5110923;28;20307;-84
2021/12/21 07:05:17;;;;;;;55.38;33.67;;;;;;;;;;5110821;27;20204;-83
2021/12/21 07:07:44;;;;;;;87.70;45.28;;;;;;;;;;5110635;28;20229;-84
2021/12/21 07:10:20;;;;;;;105.00;45.03;;;;;;;;;;5110687;28;20660;-84
2021/12/21 07:18:29;;;;;;;115.68;56.33;;;;;;;;;;5110574;28;20189;-84
2021/12/21 07:20:57;;;;;;;50.50;40.17;;;;;;;;;;5110833;28;20256;-84
2021/12/21 07:23:24;;;;;;;222.30;73.07;;;;;;;;;;5110771;28;20263;-85
2021/12/21 07:25:51;;;;;;;103.60;60.03;;;;;;;;;;5110051;28;20287;-84
2021/12/21 07:28:19;;;;;;;179.95;66.70;;;;;;;;;;5129289;28;20186;-84
2021/12/21 07:30:48;;;;;;;213.10;74.75;;;;;;;;;;5110920;28;20229;-82
2021/12/21 07:33:16;;;;;;;266.83;80.85;;;;;;;;;;5110487;28;20248;-81
2021/12/21 07:35:43;;;;;;;291.42;80.32;;;;;;;;;;5110005;28;20259;-80
2021/12/21 07:38:11;;;;;;;282.23;84.13;;;;;;;;;;5101201;28;20192;-80
2021/12/21 07:40:38;;;;;;;343.45;90.95;;;;;;;;;;5095457;28;20232;-80
2021/12/21 07:43:05;;;;;;;257.30;76.80;;;;;;;;;;5095216;28;20187;-81
2021/12/21 07:45:33;;;;;;;204.93;71.72;;;;;;;;;;5093495;28;20206;-80
2021/12/21 07:48:02;;;;;;;242.43;83.15;;;;;;;;;;5094917;28;20214;-80
2021/12/21 07:50:29;;;;;;;197.75;79.80;;;;;;;;;;5094856;28;20260;-80
2021/12/21 07:53:00;;;;;;;237.70;83.20;;;;;;;;;;5094808;28;20220;-80
2021/12/21 07:55:27;;;;;;;210.05;80.95;;;;;;;;;;5094832;28;20552;-81
2021/12/21 07:57:54;;;;;;;245.40;82.85;;;;;;;;;;5094569;28;20231;-81
2021/12/21 08:00:23;;;;;;;274.17;86.15;;;;;;;;;;5094678;28;20538;-79
2021/12/21 08:02:51;;;;;;;271.33;87.88;;;;;;;;;;5110240;28;20284;-80
2021/12/21 08:05:20;;;;;;;229.63;82.30;;;;;;;;;;5115039;28;20194;-78
2021/12/21 08:07:52;;;;;;;118.72;72.55;;;;;;;;;;5114625;28;20734;-80
2021/12/21 08:10:26;;;;;;;101.63;63.25;;;;;;;;;;5114832;28;20197;-80
2021/12/21 08:12:54;;;;;;;254.00;78.38;;;;;;;;;;5114591;28;20692;-80
2021/12/21 08:15:21;;;;;;;387.65;90.53;;;;;;;;;;5114673;28;20561;-79
2021/12/21 08:17:49;;;;;;;272.95;88.20;;;;;;;;;;5114741;28;20528;-80
2021/12/21 08:20:16;;;;;;;333.95;93.05;;;;;;;;;;5114840;28;20951;-80
2021/12/21 08:22:45;;;;;;;281.08;74.40;;;;;;;;;;5114200;28;20226;-80
2021/12/21 08:25:12;;;;;;;294.00;90.70;;;;;;;;;;5115234;28;20239;-79
2021/12/21 08:27:40;;;;;;;297.52;86.07;;;;;;;;;;5116238;27;20246;-80
2021/12/21 08:30:08;;;;;;;328.23;89.88;;;;;;;;;;5114729;28;20675;-80
2021/12/21 08:32:35;;;;;;;268.88;90.28;;;;;;;;;;5114954;28;20202;-81
2021/12/21 08:35:03;;;;;;;275.17;91.95;;;;;;;;;;5115081;28;20190;-80
2021/12/21 08:37:30;;;;;;;324.77;100.75;;;;;;;;;;5115902;28;20193;-81
2021/12/21 08:39:59;;;;;;;314.38;90.93;;;;;;;;;;5115173;28;20643;-79
2021/12/21 08:42:27;;;;;;;310.20;87.25;;;;;;;;;;5114732;28;20202;-81
2021/12/21 08:44:56;;;;;;;190.50;89.35;;;;;;;;;;5114431;28;20272;-81
2021/12/21 08:47:25;;;;;;;326.00;96.88;;;;;;;;;;5116276;28;20275;-80
2021/12/21 08:49:52;;;;;;;266.00;88.88;;;;;;;;;;5113414;28;20284;-80
2021/12/21 08:52:19;;;;;;;317.90;93.30;;;;;;;;;;5114443;28;20186;-81
2021/12/21 08:54:47;;;;;;;314.90;87.68;;;;;;;;;;5114262;28;20197;-80
2021/12/21 08:57:16;;;;;;;361.95;95.88;;;;;;;;;;5114819;28;20531;-80
2021/12/21 08:59:43;;;;;;;247.15;81.88;;;;;;;;;;5115806;28;20235;-80
2021/12/21 09:02:11;;;;;;;274.75;92.13;;;;;;;;;;5105843;28;20663;-80
2021/12/21 09:04:39;;;;;;;346.30;93.82;;;;;;;;;;5094540;28;20286;-79
2021/12/21 09:07:07;;;;;;;356.38;92.20;;;;;;;;;;5093325;28;20214;-79
2021/12/21 09:09:34;;;;;;;394.92;85.47;;;;;;;;;;5094160;28;20579;-79
2021/12/21 09:12:02;;;;;;;415.80;95.10;;;;;;;;;;5093964;28;20199;-79
2021/12/21 09:14:32;;;;;;;228.13;86.30;;;;;;;;;;5094223;28;20198;-81
2021/12/21 09:16:59;;;;;;;177.93;80.38;;;;;;;;;;5093639;28;20194;-80
2021/12/21 09:19:27;;;;;;;284.08;87.07;;;;;;;;;;5095262;28;20187;-85
2021/12/21 09:21:55;;;;;;;381.55;95.68;;;;;;;;;;5094406;28;20241;-77
2021/12/21 09:24:22;;;;;;;322.13;91.88;;;;;;;;;;5093571;28;20198;-80
2021/12/21 09:26:50;;;;;;;304.38;93.13;;;;;;;;;;5093177;28;20614;-83
2021/12/21 09:29:17;;;;;;;243.65;88.95;;;;;;;;;;5093783;28;20244;-78
2021/12/21 09:31:46;;;;;;;378.70;100.07;;;;;;;;;;5093407;28;20198;-80
2021/12/21 09:34:13;;;;;;;313.05;91.85;;;;;;;;;;5093458;28;20194;-78
2021/12/21 09:36:41;;;;;;;335.17;90.55;;;;;;;;;;5093213;28;20286;-80
2021/12/21 09:39:08;;;;;;;281.67;87.15;;;;;;;;;;5106177;28;20221;-94
2021/12/21 09:41:36;;;;;;;201.98;83.97;;;;;;;;;;5130445;28;20202;-96
2021/12/21 09:44:04;;;;;;;264.33;88.07;;;;;;;;;;5124104;28;20190;-94
2021/12/21 09:46:31;;;;;;;326.52;95.28;;;;;;;;;;5113836;28;20206;-81
2021/12/21 09:49:00;;;;;;;394.88;97.63;;;;;;;;;;5113411;28;20191;-88
2021/12/21 09:51:28;;;;;;;415.33;106.20;;;;;;;;;;5116068;28;20183;-87
2021/12/21 09:53:57;;;;;;;348.38;104.65;;;;;;;;;;5114490;28;20187;-80
2021/12/21 09:56:24;;;;;;;371.95;93.60;;;;;;;;;;5113064;28;20185;-80
2021/12/21 09:58:52;;;;;;;482.65;118.88;;;;;;;;;;5113566;28;20191;-81
2021/12/21 10:01:21;;;;;;;230.07;87.38;;;;;;;;;;5113308;28;20190;-82
2021/12/21 10:03:48;;;;;;;285.55;91.80;;;;;;;;;;5094887;28;20197;-82
2021/12/21 10:06:17;;;;;;;264.05;92.78;;;;;;;;;;5094761;28;20194;-82
2021/12/21 10:08:45;;;;;;;205.63;87.28;;;;;;;;;;5095371;28;20225;-86
2021/12/21 10:11:19;;;;;;;411.88;103.80;;;;;;;;;;5095720;28;20205;-81
2021/12/21 10:13:46;;;;;;;216.05;95.72;;;;;;;;;;5097661;28;20962;-80
2021/12/21 10:16:13;;;;;;;174.38;76.43;;;;;;;;;;5099333;28;20206;-80
2021/12/21 10:18:42;;;;;;;299.00;98.40;;;;;;;;;;5099933;28;20219;-81
2021/12/21 10:21:10;;;;;;;166.68;84.53;;;;;;;;;;5094371;28;20256;-81
2021/12/21 10:23:40;;;;;;;159.80;87.78;;;;;;;;;;5093496;28;20190;-81
2021/12/21 10:26:10;;;;;;;248.50;84.60;;;;;;;;;;5094298;28;20692;-91
2021/12/21 10:28:38;;;;;;;200.27;72.72;;;;;;;;;;5093597;28;20314;-89
2021/12/21 10:31:07;;;;;;;155.00;54.55;;;;;;;;;;5094171;28;20240;-89
2021/12/21 10:33:36;;;;;;;121.10;57.15;;;;;;;;;;5096805;28;20202;-96
2021/12/21 10:36:05;;;;;;;164.43;72.10;;;;;;;;;;5109717;28;20191;-96
2021/12/21 10:38:33;;;;;;;116.10;56.00;;;;;;;;;;5107903;28;20184;-96
2021/12/21 10:41:08;;;;;;;92.40;54.42;;;;;;;;;;5096931;28;20191;-83
2021/12/21 10:43:36;;;;;;;135.73;51.92;;;;;;;;;;5093525;28;20202;-82
2021/12/21 10:46:04;;;;;;;70.57;54.97;;;;;;;;;;5090707;28;20203;-82
2021/12/21 10:48:35;;;;;;;104.43;52.30;;;;;;;;;;5093286;28;20303;-82
2021/12/21 10:51:03;;;;;;;76.45;49.58;;;;;;;;;;5096062;28;20222;-82
2021/12/21 10:53:32;;;;;;;94.88;47.40;;;;;;;;;;5092864;28;20610;-82
2021/12/21 10:56:01;;;;;;;55.70;39.67;;;;;;;;;;5092970;28;20183;-82
2021/12/21 10:58:30;;;;;;;51.05;34.08;;;;;;;;;;5093308;28;20218;-83
2021/12/21 11:01:00;;;;;;;52.28;41.83;;;;;;;;;;5092955;28;20198;-83
2021/12/21 11:03:32;;;;;;;45.20;40.63;;;;;;;;;;5092928;28;20606;-83
2021/12/21 11:06:08;;;;;;;85.13;44.58;;;;;;;;;;5092709;28;20202;-83
2021/12/21 11:08:38;;;;;;;48.90;40.78;;;;;;;;;;5092072;28;20215;-83
2021/12/21 11:11:10;;;;;;;54.30;36.88;;;;;;;;;;5096128;28;20214;-96
2021/12/21 11:13:43;;;;;;;61.25;38.47;;;;;;;;;;5100378;28;20198;-96
2021/12/21 11:16:12;;;;;;;86.28;39.60;;;;;;;;;;5105275;28;20195;-95
2021/12/21 11:18:40;;;;;;;94.43;39.08;;;;;;;;;;5100395;28;20199;-94
2021/12/21 11:21:10;;;;;;;75.97;39.22;;;;;;;;;;5099508;28;20223;-93
2021/12/21 11:23:37;;;;;;;87.43;39.58;;;;;;;;;;5098499;28;20199;-94
2021/12/21 11:26:07;;;;;;;76.65;40.10;;;;;;;;;;5098285;28;20231;-93
2021/12/21 11:28:36;;;;;;;62.65;34.55;;;;;;;;;;5095462;28;20235;-83
2021/12/21 11:31:06;;;;;;;57.47;37.83;;;;;;;;;;5095652;28;20274;-82
2021/12/21 11:33:36;;;;;;;41.53;35.10;;;;;;;;;;5101963;28;20206;-96
2021/12/21 11:38:49;;;;;;;104.30;42.70;;;;;;;;;;5096302;28;20189;-91
2021/12/21 11:41:17;;;;;;;97.65;42.22;;;;;;;;;;5096305;28;20708;-94
2021/12/21 11:43:49;;;;;;;96.68;38.63;;;;;;;;;;5094946;28;20653;-96
2021/12/21 11:46:24;;;;;;;109.53;43.22;;;;;;;;;;5096424;28;20199;-96
2021/12/21 11:48:55;;;;;;;75.32;38.35;;;;;;;;;;5099097;27;20680;-96
2021/12/21 11:51:25;;;;;;;72.50;36.83;;;;;;;;;;5098402;28;20195;-96
2021/12/21 11:53:53;;;;;;;58.22;35.83;;;;;;;;;;5099406;28;20192;-96
2021/12/21 11:59:12;;;;;;;75.68;37.13;;;;;;;;;;5181953;22;20654;-89
2021/12/21 12:01:46;;;;;;;77.25;38.92;;;;;;;;;;5037442;28;20190;-85
2021/12/21 12:04:13;;;;;;;76.35;40.25;;;;;;;;;;5016964;28;20197;-84
2021/12/21 12:06:45;;;;;;;83.05;37.15;;;;;;;;;;5017063;28;20198;-94
2021/12/21 12:09:12;;;;;;;75.25;38.75;;;;;;;;;;5018744;28;20232;-85
2021/12/21 12:11:42;;;;;;;41.47;36.78;;;;;;;;;;5017324;28;20187;-85
2021/12/21 12:14:12;;;;;;;52.03;39.67;;;;;;;;;;5024810;28;20198;-86
2021/12/21 12:16:45;;;;;;;70.78;41.47;;;;;;;;;;5031684;28;20648;-85
2021/12/21 12:22:00;;;;;;;47.95;36.92;;;;;;;;;;5034295;28;20225;-85
2021/12/21 12:24:35;;;;;;;70.15;38.67;;;;;;;;;;5018338;28;20190;-85
2021/12/21 12:32:55;;;;;;;57.05;38.40;;;;;;;;;;5035818;28;20232;-85
2021/12/21 12:38:09;;;;;;;58.35;37.25;;;;;;;;;;5034339;28;20212;-81
2021/12/21 12:40:39;;;;;;;59.13;36.30;;;;;;;;;;5019888;28;20265;-81
2021/12/21 12:45:55;;;;;;;79.65;49.53;;;;;;;;;;5034824;28;20203;-91
2021/12/21 12:48:33;;;;;;;48.33;37.95;;;;;;;;;;5036357;28;20200;-90
2021/12/21 13:24:46;;;;;;;44.40;37.90;;;;;;;;;;5098093;28;20154;-81
2021/12/21 13:44:37;;;;;;;64.15;36.20;;;;;;;;;;5094354;28;20203;-84
2021/12/21 13:47:27;;;;;;;46.58;35.65;;;;;;;;;;5435691;22;20215;-83
2021/12/21 13:50:18;;;;;;;41.22;37.10;;;;;;;;;;5097055;28;20201;-82
2021/12/21 13:52:48;;;;;;;107.90;41.85;;;;;;;;;;5096020;28;20201;-83
2021/12/21 13:55:22;;;;;;;77.00;44.53;;;;;;;;;;5073466;28;20226;-87
2021/12/21 13:57:49;;;;;;;63.60;41.00;;;;;;;;;;5073455;28;20187;-87
2021/12/21 14:00:17;;;;;;;66.60;39.80;;;;;;;;;;5073843;28;20199;-86
2021/12/21 14:02:51;;;;;;;85.60;38.17;;;;;;;;;;5073417;28;20621;-87
2021/12/21 14:05:19;;;;;;;66.03;37.05;;;;;;;;;;5055546;28;20206;-87
2021/12/21 14:07:49;;;;;;;63.40;39.70;;;;;;;;;;5073434;28;20223;-88
2021/12/21 14:10:18;;;;;;;73.38;39.38;;;;;;;;;;5073583;28;20249;-90
2021/12/21 14:12:56;;;;;;;105.65;43.42;;;;;;;;;;5073956;28;20199;-82
2021/12/21 14:15:23;;;;;;;108.38;42.58;;;;;;;;;;5073242;28;20219;-91
2021/12/21 14:17:51;;;;;;;56.17;38.60;;;;;;;;;;5055555;28;20245;-83
2021/12/21 14:20:20;;;;;;;94.15;40.35;;;;;;;;;;5072762;28;20223;-86
2021/12/21 14:22:49;;;;;;;135.95;44.38;;;;;;;;;;5073190;28;20600;-82
2021/12/21 14:25:19;;;;;;;108.80;42.03;;;;;;;;;;5092905;28;20190;-91
2021/12/21 14:27:46;;;;;;;69.50;38.28;;;;;;;;;;5093666;28;20182;-88
2021/12/21 14:30:16;;;;;;;43.47;38.58;;;;;;;;;;5092744;28;20201;-83
2021/12/21 14:33:05;;;;;;;78.97;40.10;;;;;;;;;;5093252;28;20202;-85
2021/12/21 14:35:37;;;;;;;84.30;40.90;;;;;;;;;;5093561;28;20199;-93
2021/12/21 14:38:10;;;;;;;77.40;37.67;;;;;;;;;;5092815;28;20604;-86
2021/12/21 14:40:42;;;;;;;57.67;38.10;;;;;;;;;;5092935;28;20613;-86
2021/12/21 14:43:19;;;;;;;64.72;40.20;;;;;;;;;;5093154;28;20706;-86
2021/12/21 14:45:47;;;;;;;90.93;41.63;;;;;;;;;;5093379;28;20210;-89
2021/12/21 14:48:16;;;;;;;89.55;43.70;;;;;;;;;;5095910;28;20280;-95
2021/12/21 14:50:47;;;;;;;71.07;35.42;;;;;;;;;;5097632;28;20235;-92
2021/12/21 14:53:41;;;;;;;86.07;41.63;;;;;;;;;;5097552;28;20221;-91
2021/12/21 14:56:08;;;;;;;59.33;38.92;;;;;;;;;;5097639;28;20293;-93
2021/12/21 14:58:36;;;;;;;75.40;40.08;;;;;;;;;;5097547;28;20648;-94
2021/12/21 15:01:05;;;;;;;98.13;43.70;;;;;;;;;;5098267;28;20186;-95
2021/12/21 15:03:39;;;;;;;82.60;41.50;;;;;;;;;;5075811;28;20195;-96
2021/12/21 15:06:06;;;;;;;43.58;37.50;;;;;;;;;;5072478;28;20202;-96
2021/12/21 15:08:35;;;;;;;99.45;40.97;;;;;;;;;;5077512;28;20583;-96
2021/12/21 15:11:03;;;;;;;88.28;41.72;;;;;;;;;;5077456;28;20188;-96
2021/12/21 15:13:30;;;;;;;46.15;37.08;;;;;;;;;;5076569;28;20611;-95
2021/12/21 15:15:58;;;;;;;51.50;35.85;;;;;;;;;;5071490;28;20206;-96
2021/12/21 15:18:25;;;;;;;63.97;38.05;;;;;;;;;;5075877;28;20203;-94
2021/12/21 15:20:53;;;;;;;79.30;41.00;;;;;;;;;;5071053;28;20204;-96
2021/12/21 15:23:21;;;;;;;62.13;39.10;;;;;;;;;;5083042;28;20253;-95
2021/12/21 15:25:50;;;;;;;43.40;35.45;;;;;;;;;;5079707;28;20200;-96
2021/12/21 15:28:17;;;;;;;61.45;37.95;;;;;;;;;;5076319;28;20224;-93
2021/12/21 15:30:45;;;;;;;89.43;38.35;;;;;;;;;;5068378;28;20208;-95
2021/12/21 15:33:12;;;;;;;65.63;38.53;;;;;;;;;;5076218;28;20691;-93
2021/12/21 15:35:40;;;;;;;48.88;37.22;;;;;;;;;;5076350;28;20203;-94
2021/12/21 15:38:08;;;;;;;72.82;39.90;;;;;;;;;;5076190;28;20188;-95
2021/12/21 15:40:35;;;;;;;47.17;38.33;;;;;;;;;;5076170;28;20203;-94
2021/12/21 15:43:06;;;;;;;42.10;37.05;;;;;;;;;;5076704;28;20278;-95
2021/12/21 15:45:34;;;;;;;61.67;38.75;;;;;;;;;;5076074;28;20227;-94
2021/12/21 15:48:02;;;;;;;51.45;37.60;;;;;;;;;;5075697;28;20242;-94
2021/12/21 15:50:31;;;;;;;52.42;36.33;;;;;;;;;;5076134;28;20188;-94
2021/12/21 15:52:58;;;;;;;89.18;36.35;;;;;;;;;;5076092;28;20302;-94
2021/12/21 15:55:26;;;;;;;49.95;34.65;;;;;;;;;;5073384;28;20249;-95
2021/12/21 15:57:54;;;;;;;41.40;36.72;;;;;;;;;;5076045;28;20187;-95
2021/12/21 16:00:23;;;;;;;65.30;39.47;;;;;;;;;;5072326;28;20207;-94
2021/12/21 16:02:52;;;;;;;83.90;41.42;;;;;;;;;;5082915;28;20206;-94
2021/12/21 16:05:20;;;;;;;51.17;36.80;;;;;;;;;;5096330;28;20607;-94
2021/12/21 16:07:47;;;;;;;56.90;37.40;;;;;;;;;;5096050;28;20183;-95
2021/12/21 16:10:16;;;;;;;86.05;41.63;;;;;;;;;;5096074;28;20215;-95
2021/12/21 16:12:43;;;;;;;60.65;37.72;;;;;;;;;;5095757;28;20190;-94
2021/12/21 16:15:11;;;;;;;75.97;41.33;;;;;;;;;;5096146;28;20187;-94
2021/12/21 16:17:40;;;;;;;57.42;39.92;;;;;;;;;;5087891;28;20198;-95